createdAt,value
2018-11-25T00:02:44.612Z,25.93
2018-11-25T00:07:47.874Z,26.05
2018-11-25T00:12:51.096Z,27.67
2018-11-25T00:17:54.387Z,23.38
2018-11-25T00:22:57.609Z,24.70
2018-11-25T00:28:00.912Z,28.23
2018-11-25T00:33:04.140Z,23.73
2018-11-25T00:38:07.449Z,24.52
2018-11-25T00:43:10.749Z,25.77
2018-11-25T00:48:13.968Z,26.23
2018-11-25T00:53:17.186Z,25.95
2018-11-25T00:58:20.416Z,23.05
2018-11-25T01:03:23.657Z,22.98
2018-11-25T01:08:26.856Z,23.55
2018-11-25T01:13:30.090Z,24.10
2018-11-25T01:18:33.316Z,25.82
2018-11-25T01:23:36.542Z,26.15
2018-11-25T01:28:39.740Z,25.45
2018-11-25T01:33:42.925Z,25.20
2018-11-25T01:38:46.085Z,24.00
2018-11-25T01:43:49.263Z,24.50
2018-11-25T01:48:52.420Z,27.48
2018-11-25T01:53:55.579Z,23.12
2018-11-25T01:58:58.760Z,25.43
2018-11-25T02:04:01.948Z,26.70
2018-11-25T02:09:07.840Z,25.57
2018-11-25T02:14:11.039Z,25.00
2018-11-25T02:19:14.208Z,24.47
2018-11-25T02:24:17.471Z,24.00
2018-11-25T02:29:20.699Z,25.10
2018-11-25T02:34:23.936Z,25.45
2018-11-25T02:39:27.148Z,27.32
2018-11-25T02:44:30.388Z,25.25
2018-11-25T02:49:33.624Z,26.10
2018-11-25T02:54:36.845Z,27.17
2018-11-25T02:59:40.072Z,26.27
2018-11-25T03:04:43.391Z,24.65
2018-11-25T03:09:46.600Z,25.32
2018-11-25T03:14:49.957Z,28.92
2018-11-25T03:19:53.175Z,24.30
2018-11-25T03:24:56.384Z,31.93
2018-11-25T03:29:59.620Z,29.07
2018-11-25T03:35:02.860Z,32.45
2018-11-25T03:40:08.332Z,32.70
2018-11-25T03:45:15.346Z,33.38
2018-11-25T03:50:18.616Z,28.12
2018-11-25T03:55:21.840Z,28.42
2018-11-25T04:00:25.054Z,30.33
2018-11-25T04:05:28.927Z,29.73
2018-11-25T04:10:31.516Z,28.80
2018-11-25T04:15:34.728Z,29.92
2018-11-25T04:20:37.976Z,31.27
2018-11-25T04:25:41.223Z,28.67
2018-11-25T04:30:44.456Z,31.48
2018-11-25T04:35:47.691Z,30.10
2018-11-25T04:40:50.931Z,29.67
2018-11-25T04:45:54.201Z,30.50
2018-11-25T04:50:57.433Z,29.98
2018-11-25T04:56:00.681Z,29.55
2018-11-25T05:01:03.952Z,26.65
2018-11-25T05:06:07.177Z,30.67
2018-11-25T05:11:10.420Z,27.70
2018-11-25T05:16:13.658Z,28.83
2018-11-25T05:21:16.920Z,31.93
2018-11-25T05:26:20.243Z,35.73
2018-11-25T05:31:23.476Z,37.47
2018-11-25T05:36:26.708Z,32.67
2018-11-25T05:41:29.981Z,34.90
2018-11-25T05:46:33.280Z,36.90
2018-11-25T05:51:36.524Z,33.07
2018-11-25T05:56:39.752Z,36.33
2018-11-25T06:01:43.012Z,37.63
2018-11-25T06:06:46.264Z,40.25
2018-11-25T06:11:49.504Z,36.17
2018-11-25T06:16:52.752Z,42.33
2018-11-25T06:21:55.987Z,33.35
2018-11-25T06:26:59.269Z,35.10
2018-11-25T06:32:02.537Z,35.65
2018-11-25T06:37:05.904Z,34.27
2018-11-25T06:42:09.212Z,35.48
2018-11-25T06:47:12.536Z,33.35
2018-11-25T06:52:15.793Z,33.57
2018-11-25T06:57:19.189Z,57.43
2018-11-25T07:02:22.501Z,35.52
2018-11-25T07:07:25.720Z,43.63
2018-11-25T07:12:28.973Z,37.63
2018-11-25T07:17:32.253Z,35.65
2018-11-25T07:22:35.519Z,39.58
2018-11-25T07:27:38.768Z,47.55
2018-11-25T07:32:42.017Z,37.10
2018-11-25T07:37:45.300Z,34.08
2018-11-25T07:42:48.853Z,32.70
2018-11-25T07:47:52.077Z,30.70
2018-11-25T07:52:55.316Z,31.97
2018-11-25T07:57:58.728Z,31.07
2018-11-25T08:03:01.996Z,32.28
2018-11-25T08:08:05.432Z,30.62
2018-11-25T08:13:08.664Z,34.50
2018-11-25T08:18:11.917Z,33.95
2018-11-25T08:23:15.691Z,26.93
2018-11-25T08:28:19.224Z,30.40
2018-11-25T08:33:21.747Z,29.10
2018-11-25T08:38:25.019Z,30.70
2018-11-25T08:43:28.265Z,28.35
2018-11-25T08:48:31.491Z,30.20
2018-11-25T08:53:34.807Z,27.20
2018-11-25T08:58:38.145Z,26.10
2018-11-25T09:03:41.392Z,27.30
2018-11-25T09:08:44.631Z,26.43
2018-11-25T09:13:47.958Z,22.48
2018-11-25T09:18:51.244Z,22.87
2018-11-25T09:23:55.325Z,22.20
2018-11-25T09:28:58.560Z,21.77
2018-11-25T09:34:01.785Z,21.90
2018-11-25T09:39:07.816Z,22.90
2018-11-25T09:44:11.036Z,21.60
2018-11-25T09:49:14.244Z,18.67
2018-11-25T09:54:17.579Z,21.42
2018-11-25T09:59:20.800Z,21.97
2018-11-25T10:04:24.087Z,23.02
2018-11-25T10:09:27.283Z,20.57
2018-11-25T10:14:30.505Z,22.80
2018-11-25T10:19:33.732Z,23.07
2018-11-25T10:24:37.056Z,23.25
2018-11-25T10:29:40.345Z,24.95
2018-11-25T10:34:43.575Z,25.08
2018-11-25T10:39:46.796Z,24.30
2018-11-25T10:44:50.016Z,22.87
2018-11-25T10:49:53.235Z,24.50
2018-11-25T10:54:56.449Z,23.98
2018-11-25T10:59:59.658Z,26.00
2018-11-25T11:05:05.603Z,22.15
2018-11-25T11:10:09.600Z,22.17
2018-11-25T11:15:12.872Z,23.90
2018-11-25T11:20:16.060Z,19.40
2018-11-25T11:25:19.271Z,22.40
2018-11-25T11:30:22.516Z,24.27
2018-11-25T11:35:25.744Z,22.22
2018-11-25T11:40:28.996Z,20.23
2018-11-25T11:45:32.222Z,22.15
2018-11-25T11:50:35.440Z,24.70
2018-11-25T11:55:38.760Z,25.03
2018-11-25T12:00:42.050Z,20.50
2018-11-25T12:05:45.238Z,24.12
2018-11-25T12:10:48.496Z,27.73
2018-11-25T12:15:51.759Z,25.68
2018-11-25T12:20:55.018Z,26.93
2018-11-25T12:25:58.319Z,28.80
2018-11-25T12:31:01.540Z,27.97
2018-11-25T12:36:05.072Z,27.07
2018-11-25T12:41:08.336Z,24.50
2018-11-25T12:46:11.600Z,29.45
2018-11-25T12:51:14.927Z,29.03
2018-11-25T12:56:18.136Z,28.95
2018-11-25T13:01:21.407Z,28.05
2018-11-25T13:06:24.608Z,24.40
2018-11-25T13:11:27.840Z,30.70
2018-11-25T13:16:31.073Z,28.77
2018-11-25T13:21:34.320Z,30.70
2018-11-25T13:26:37.552Z,29.57
2018-11-25T13:31:40.789Z,31.93
2018-11-25T13:36:44.000Z,26.43
2018-11-25T13:41:47.212Z,29.35
2018-11-25T13:46:50.458Z,26.25
2018-11-25T13:51:53.712Z,29.52
2018-11-25T13:56:56.961Z,30.60
2018-11-25T14:02:00.205Z,33.05
2018-11-25T14:07:03.444Z,30.97
2018-11-25T14:12:06.697Z,30.97
2018-11-25T14:17:09.949Z,33.33
2018-11-25T14:22:13.228Z,34.55
2018-11-25T14:27:16.480Z,32.88
2018-11-25T14:32:19.839Z,33.10
2018-11-25T14:37:23.061Z,33.40
2018-11-25T14:42:26.276Z,31.42
2018-11-25T14:47:29.484Z,32.45
2018-11-25T14:52:32.781Z,33.23
2018-11-25T14:57:36.009Z,32.35
2018-11-25T15:02:39.228Z,32.05
2018-11-25T15:07:42.556Z,35.03
2018-11-25T15:12:45.752Z,36.10
2018-11-25T15:17:49.210Z,33.92
2018-11-25T15:22:54.468Z,33.00
2018-11-25T15:27:58.339Z,36.40
2018-11-25T15:33:01.073Z,33.40
2018-11-25T15:38:04.529Z,32.08
2018-11-25T15:43:09.019Z,34.60
2018-11-25T15:48:14.232Z,32.33
2018-11-25T15:53:18.066Z,33.18
2018-11-25T15:58:20.936Z,30.95
2018-11-25T16:03:24.277Z,31.07
2018-11-25T16:08:27.902Z,31.50
2018-11-25T16:13:31.219Z,31.13
2018-11-25T16:18:34.719Z,32.93
2018-11-25T16:23:37.933Z,32.90
2018-11-25T16:28:43.404Z,31.60
2018-11-25T16:33:46.746Z,31.05
2018-11-25T16:38:50.001Z,30.05
2018-11-25T16:43:53.441Z,30.80
2018-11-25T16:48:56.702Z,32.77
2018-11-25T16:54:00.110Z,32.78
2018-11-25T16:59:03.541Z,32.03
2018-11-25T17:04:06.888Z,33.10
2018-11-25T17:09:12.007Z,31.87
2018-11-25T17:14:15.462Z,32.10
2018-11-25T17:19:18.724Z,34.35
2018-11-25T17:24:22.049Z,34.53
2018-11-25T17:29:25.325Z,34.67
2018-11-25T17:34:28.865Z,30.40
2018-11-25T17:39:32.236Z,33.35
2018-11-25T17:44:35.575Z,33.60
2018-11-25T17:49:39.077Z,32.80
2018-11-25T17:54:42.596Z,33.92
2018-11-25T17:59:45.848Z,34.87
2018-11-25T18:04:49.103Z,33.18
2018-11-25T18:09:52.353Z,35.17
2018-11-25T18:14:55.848Z,35.05
2018-11-25T18:19:59.317Z,35.33
2018-11-25T18:25:02.788Z,31.65
2018-11-25T18:30:09.756Z,32.50
2018-11-25T18:35:13.574Z,38.28
2018-11-25T18:40:17.091Z,36.55
2018-11-25T18:45:20.743Z,37.98
2018-11-25T18:50:25.316Z,41.28
2018-11-25T18:55:27.639Z,35.10
2018-11-25T19:00:37.477Z,40.63
2018-11-25T19:05:40.790Z,40.87
2018-11-25T19:10:44.090Z,41.35
2018-11-25T19:15:47.592Z,34.70
2018-11-25T19:20:50.946Z,38.05
2018-11-25T19:25:54.218Z,36.27
2018-11-25T19:30:57.440Z,36.35
2018-11-25T19:36:00.700Z,40.12
2018-11-25T19:41:03.976Z,42.58
2018-11-25T19:46:07.215Z,40.85
2018-11-25T19:51:17.320Z,43.47
2018-11-25T19:56:13.734Z,41.10
2018-11-25T20:01:16.971Z,34.67
2018-11-25T20:06:20.204Z,44.80
2018-11-25T20:11:23.467Z,39.60
2018-11-25T20:16:31.999Z,35.17
2018-11-25T20:21:40.671Z,43.08
2018-11-25T20:26:49.495Z,42.57
2018-11-25T20:31:58.248Z,43.98
2018-11-25T20:37:01.645Z,40.67
2018-11-25T20:42:05.033Z,36.25
2018-11-25T20:47:09.255Z,34.87
2018-11-25T20:52:18.040Z,34.17
2018-11-25T20:57:21.282Z,32.17
2018-11-25T21:02:28.890Z,29.57
2018-11-25T21:07:27.753Z,29.03
2018-11-25T21:12:30.965Z,27.23
2018-11-25T21:17:34.192Z,25.50
2018-11-25T21:22:37.556Z,31.42
2018-11-25T21:27:40.807Z,29.60
2018-11-25T21:32:44.540Z,30.92
2018-11-25T21:37:47.755Z,31.02
2018-11-25T21:42:51.009Z,31.70
2018-11-25T21:47:54.235Z,34.50
2018-11-25T21:52:57.444Z,35.58
2018-11-25T21:58:00.804Z,37.50
2018-11-25T22:03:04.017Z,35.08
2018-11-25T22:08:07.219Z,36.28
2018-11-25T22:13:10.453Z,38.75
2018-11-25T22:18:13.680Z,37.28
2018-11-25T22:23:16.949Z,38.88
2018-11-25T22:28:20.208Z,37.83
2018-11-25T22:33:23.433Z,35.90
2018-11-25T22:38:26.676Z,37.98
2018-11-25T22:43:29.887Z,33.55
2018-11-25T22:48:33.123Z,39.25
2018-11-25T22:53:36.360Z,38.35
2018-11-25T22:58:39.627Z,37.90
2018-11-25T23:03:42.940Z,37.23
2018-11-25T23:08:46.164Z,37.43
2018-11-25T23:13:49.392Z,34.70
2018-11-25T23:18:52.742Z,33.80
2018-11-25T23:23:55.952Z,36.28
2018-11-25T23:28:59.207Z,37.75
2018-11-25T23:34:02.444Z,37.58
2018-11-25T23:39:08.448Z,34.10
2018-11-25T23:44:11.684Z,31.62
2018-11-25T23:49:14.938Z,27.70
2018-11-25T23:54:18.121Z,36.55
2018-11-25T23:59:21.320Z,32.23
